| time (UTC) | temp F | wind direction | speed knots | gust knots | rain 1hr in | rain 24hr in | rain mn in | humidity % | barometer mb |
| 20260510063049 | 48 | 278 | 0.0 | 0.0 | 0.00 | 0.23 | 0.01 | 1011.4 | |
| 20260510061602 | 48 | 278 | 0.0 | 0.0 | 0.00 | 0.23 | 0.01 | 1011.3 | |
| 20260510060108 | 48 | 277 | 0.0 | 0.0 | 0.00 | 0.23 | 0.01 | 100 | 1011.4 |
| 20260510054513 | 48 | 277 | 0.0 | 0.0 | 0.01 | 0.23 | 0.01 | 100 | 1011.5 |
| 20260510053026 | 47 | 277 | 0.0 | 0.0 | 0.01 | 0.23 | 0.01 | 100 | 1011.2 |
| 20260510051548 | 47 | 272 | 0.0 | 0.0 | 0.01 | 0.23 | 0.01 | 100 | 1011.2 |
| 20260510050038 | 47 | 272 | 0.0 | 0.0 | 0.01 | 0.23 | 0.01 | 1 | 1011.1 |
| 20260510044616 | 47 | 272 | 0.0 | 0.0 | 0.00 | 0.22 | 0.00 | 1 | 1011.1 |
| 20260510043055 | 46 | 272 | 0.0 | 0.0 | 0.00 | 0.22 | 0.00 | 1 | 1011.3 |
| 20260510041506 | 46 | 272 | 0.0 | 0.0 | 0.00 | 0.22 | 0.00 | 2 | 1011.4 |
| 20260510040027 | 45 | 272 | 0.0 | 0.0 | 0.00 | 0.22 | 0.00 | 2 | 1011.3 |
| 20260510034546 | 46 | 272 | 0.0 | 0.0 | 0.00 | 0.22 | 0.00 | 2 | 1011.1 |
| 20260510033058 | 44 | 272 | 0.0 | 0.0 | 0.00 | 0.22 | 0.00 | 3 | 1011.0 |
| 20260510031507 | 45 | 272 | 0.0 | 0.0 | 0.00 | 0.22 | 0.00 | 3 | 1011.4 |
| 20260510030018 | 45 | 272 | 0.0 | 0.0 | 0.00 | 0.22 | 0.00 | 3 | 1011.5 |
| 20260510024525 | 46 | 272 | 0.0 | 0.0 | 0.00 | 0.22 | 0.00 | 3 | 1011.5 |
| 20260510023020 | 47 | 272 | 0.0 | 0.0 | 0.00 | 0.22 | 0.00 | 3 | 1011.7 |
| 20260510021528 | 47 | 272 | 0.0 | 0.0 | 0.00 | 0.22 | 0.00 | 3 | 1011.7 |
| 20260510020039 | 48 | 272 | 0.0 | 0.0 | 0.00 | 0.22 | 0.00 | 3 | 1011.7 |
| 20260510014550 | 48 | 272 | 0.0 | 0.0 | 0.00 | 0.22 | 0.00 | 2 | 1011.6 |
| 20260510013101 | 49 | 272 | 0.0 | 0.0 | 0.00 | 0.22 | 0.00 | 2 | 1011.6 |
| 20260510011505 | 50 | 272 | 0.0 | 0.0 | 0.00 | 0.22 | 0.00 | 2 | 1011.6 |
| 20260510010024 | 50 | 272 | 0.0 | 0.0 | 0.00 | 0.22 | 0.00 | 2 | 1011.7 |
| 20260510004531 | 51 | 272 | 0.0 | 0.0 | 0.00 | 0.22 | 0.00 | 2 | 1011.8 |
| 20260510003053 | 51 | 272 | 0.0 | 0.0 | 0.00 | 0.22 | 0.00 | 2 | 1012.1 |
| 20260510001552 | 52 | 272 | 0.0 | 0.0 | 0.00 | 0.22 | 0.00 | 2 | 1012.0 |
| 20260510000015 | 52 | 272 | 0.0 | 0.0 | 0.00 | 0.22 | 0.00 | 2 | 1012.1 |
| 20260509234549 | 52 | 272 | 0.0 | 0.0 | 0.00 | 0.22 | 0.00 | 2 | 1012.5 |
| 20260509233050 | 52 | 272 | 0.0 | 0.0 | 0.00 | 0.22 | 0.00 | 3 | 1012.4 |
| 20260509231614 | 52 | 272 | 0.0 | 0.0 | 0.00 | 0.22 | 0.00 | 3 | 1012.6 |
| 20260509230017 | 52 | 272 | 0.0 | 0.0 | 0.00 | 0.22 | 0.00 | 3 | 1012.7 |
| 20260509224533 | 53 | 272 | 0.0 | 0.0 | 0.00 | 0.22 | 0.00 | 3 | 1012.7 |
| 20260509223050 | 53 | 272 | 0.0 | 0.0 | 0.00 | 0.22 | 0.00 | 3 | 1012.6 |
| 20260509221603 | 53 | 272 | 0.0 | 0.0 | 0.00 | 0.22 | 0.00 | 4 | 1012.6 |
| 20260509220056 | 53 | 272 | 0.0 | 0.0 | 0.00 | 0.22 | 0.00 | 4 | 1012.6 |
| 20260509214511 | 53 | 272 | 0.0 | 0.0 | 0.00 | 0.22 | 0.22 | 5 | 1012.5 |
| 20260509213029 | 53 | 272 | 0.0 | 0.0 | 0.00 | 0.22 | 0.22 | 5 | 1012.5 |
| 20260509211550 | 53 | 272 | 0.0 | 0.0 | 0.00 | 0.22 | 0.22 | 6 | 1012.4 |
| 20260509210106 | 53 | 272 | 0.0 | 0.0 | 0.00 | 0.22 | 0.22 | 6 | 1012.3 |
| 20260509204610 | 52 | 272 | 0.0 | 0.0 | 0.00 | 0.22 | 0.22 | 7 | 1012.2 |
| 20260509203035 | 52 | 272 | 0.0 | 0.0 | 0.00 | 0.22 | 0.22 | 8 | 1011.8 |
| 20260509201529 | 53 | 272 | 0.0 | 0.0 | 0.00 | 0.22 | 0.22 | 8 | 1011.3 |
| 20260509200020 | 53 | 272 | 0.0 | 0.0 | 0.00 | 0.22 | 0.22 | 8 | 1011.2 |
| 20260509194558 | 54 | 272 | 0.0 | 0.0 | 0.00 | 0.22 | 0.22 | 9 | 1010.9 |
| 20260509193014 | 54 | 272 | 0.0 | 0.0 | 0.01 | 0.22 | 0.22 | 9 | 1010.8 |
| 20260509191535 | 54 | 272 | 0.0 | 0.0 | 0.02 | 0.22 | 0.22 | 10 | 1010.4 |
| 20260509190059 | 54 | 272 | 0.0 | 0.0 | 0.06 | 0.22 | 0.22 | 11 | 1010.2 |
| 20260509184512 | 54 | 272 | 0.0 | 0.0 | 0.11 | 0.22 | 0.22 | 11 | 1010.1 |
| 20260509183030 | 55 | 272 | 0.0 | 0.0 | 0.15 | 0.21 | 0.21 | 12 | 1010.1 |
| 20260509181611 | 55 | 272 | 0.0 | 0.0 | 0.13 | 0.20 | 0.20 | 13 | 1009.8 |
| 20260509180017 | 55 | 272 | 0.0 | 0.0 | 0.09 | 0.16 | 0.16 | 14 | 1009.8 |
| 20260509174527 | 55 | 272 | 0.0 | 0.0 | 0.06 | 0.11 | 0.11 | 16 | 1010.0 |
| 20260509173044 | 55 | 272 | 0.0 | 0.0 | 0.06 | 0.06 | 0.06 | 18 | 1010.3 |
| 20260509171608 | 55 | 272 | 0.0 | 0.0 | 0.06 | 0.06 | 0.06 | 21 | 1010.6 |
| 20260509170013 | 55 | 272 | 0.0 | 0.0 | 0.06 | 0.06 | 0.06 | 24 | 1011.0 |
| 20260509164522 | 56 | 259 | 0.0 | 0.0 | 0.05 | 0.05 | 0.05 | 26 | 1011.3 |
| 20260509163034 | 56 | 252 | 0.0 | 0.0 | 0.01 | 0.01 | 0.01 | 30 | 1011.4 |
| 20260509161529 | 57 | 265 | 0.0 | 0.0 | 0.00 | 0.00 | 0.00 | 39 | 1011.5 |
| 20260509160039 | 58 | 254 | 0.0 | 0.0 | 0.00 | 0.00 | 0.00 | 50 | 1011.5 |
| 20260509154620 | 58 | 40 | 0.0 | 0.0 | 0.00 | 0.00 | 0.00 | 54 | 1011.2 |
| 20260509153024 | 59 | 40 | 0.0 | 0.0 | 0.00 | 0.00 | 0.00 | 61 | 1010.0 |
| 20260509151534 | 59 | 40 | 0.0 | 0.0 | 0.00 | 0.00 | 0.00 | 66 | 1009.5 |
| 20260509150040 | 59 | 40 | 0.0 | 0.0 | 0.00 | 0.00 | 0.00 | 69 | 1009.6 |
| 20260509144547 | 61 | 64 | 0.0 | 0.0 | 0.00 | 0.00 | 0.00 | 72 | 1009.7 |
| 20260509143053 | 61 | 64 | 0.0 | 0.0 | 0.00 | 0.00 | 0.00 | 72 | 1009.9 |
| 20260509141553 | 61 | 64 | 0.0 | 0.0 | 0.00 | 0.00 | 0.00 | 72 | 1010.5 |
| 20260509140106 | 62 | 64 | 0.0 | 0.0 | 0.00 | 0.00 | 0.00 | 72 | 1010.7 |
| 20260509134510 | 62 | 64 | 0.0 | 0.0 | 0.00 | 0.00 | 0.00 | 72 | 1010.7 |
| 20260509133031 | 62 | 64 | 0.0 | 0.0 | 0.00 | 0.00 | 0.00 | 72 | 1010.9 |
| 20260509131535 | 62 | 207 | 0.0 | 0.0 | 0.00 | 0.00 | 0.00 | 72 | 1011.2 |
| 20260509130031 | 62 | 209 | 0.0 | 0.0 | 0.00 | 0.00 | 0.00 | 72 | 1011.1 |
| 20260509124537 | 62 | 192 | 0.0 | 0.0 | 0.00 | 0.00 | 0.00 | 72 | 1011.0 |
| 20260509123040 | 62 | 226 | 0.0 | 0.0 | 0.00 | 0.00 | 0.00 | 72 | 1011.1 |
| 20260509121601 | 62 | 229 | 0.0 | 0.0 | 0.00 | 0.00 | 0.00 | 72 | 1011.3 |
| 20260509120059 | 63 | 237 | 0.0 | 0.0 | 0.00 | 0.00 | 0.00 | 71 | 1011.7 |
| 20260509114609 | 63 | 259 | 0.0 | 0.0 | 0.00 | 0.00 | 0.00 | 70 | 1011.9 |
| 20260509113001 | 64 | 238 | 0.0 | 0.0 | 0.00 | 0.00 | 0.00 | 70 | 1011.9 |
| 20260509111502 | 63 | 203 | 0.0 | 0.0 | 0.00 | 0.00 | 0.00 | 69 | 1011.9 |
| 20260509110026 | 64 | 242 | 0.0 | 0.0 | 0.00 | 0.00 | 0.00 | 69 | 1011.9 |
| 20260509104540 | 65 | 217 | 0.0 | 0.0 | 0.00 | 0.00 | 0.00 | 67 | 1011.9 |
| 20260509103048 | 65 | 240 | 0.0 | 0.0 | 0.00 | 0.00 | 0.00 | 67 | 1012.1 |
| 20260509101550 | 65 | 202 | 0.0 | 0.0 | 0.00 | 0.00 | 0.00 | 68 | 1012.1 |
| 20260509100008 | 65 | 238 | 0.0 | 0.0 | 0.00 | 0.00 | 0.00 | 69 | 1012.2 |
| 20260509094522 | 64 | 157 | 0.0 | 0.0 | 0.00 | 0.00 | 0.00 | 70 | 1012.2 |
| 20260509093053 | 65 | 209 | 0.0 | 0.0 | 0.00 | 0.00 | 0.00 | 70 | 1012.0 |
| 20260509091601 | 64 | 34 | 0.0 | 0.0 | 0.00 | 0.00 | 0.00 | 71 | 1011.9 |
| 20260509090001 | 62 | 202 | 0.0 | 0.0 | 0.00 | 0.00 | 0.00 | 71 | 1012.1 |
| 20260509084530 | 61 | 214 | 0.0 | 0.0 | 0.00 | 0.00 | 0.00 | 70 | 1012.1 |
| 20260509083048 | 61 | 263 | 0.0 | 0.0 | 0.00 | 0.00 | 0.00 | 68 | 1012.0 |
| 20260509081539 | 60 | 144 | 0.0 | 0.0 | 0.00 | 0.00 | 0.00 | 62 | 1012.2 |
| 20260509080112 | 59 | 202 | 0.0 | 0.0 | 0.00 | 0.00 | 0.00 | 54 | 1012.2 |
| 20260509074513 | 58 | 68 | 0.0 | 0.0 | 0.00 | 0.00 | 0.00 | 32 | 1012.4 |
| 20260509073019 | 56 | 63 | 0.0 | 0.0 | 0.00 | 0.00 | 0.00 | 14 | 1012.6 |
| 20260509071524 | 55 | 304 | 0.0 | 0.0 | 0.00 | 0.00 | 0.00 | 5 | 1012.6 |
| 20260509070024 | 53 | 305 | 0.0 | 0.0 | 0.00 | 0.00 | 0.00 | 3 | 1012.7 |
| 20260509064539 | 53 | 245 | 0.0 | 0.0 | 0.00 | 0.00 | 0.00 | 2 | 1012.9 |